Time;durP1;ratioP1;P1;durP2;ratioP2;P2;SDS_P1;SDS_P2;PMS_P1;PMS_P2;Temp;Humidity;BMP_temperature;BMP_pressure;BME280_temperature;BME280_humidity;BME280_pressure;Samples;Min_cycle;Max_cycle;Signal;HPM_P1;HPM_P2
2023/05/04 00:00:06;;;;;;;;;;;;;;;5.94;51.22;100380.56;5126039;27;19923;-77
2023/05/04 00:02:32;;;;;;;;;;;;;;;5.91;51.21;100381.84;5072847;28;19923;-76
2023/05/04 00:04:58;;;;;;;;;;;;;;;5.91;51.28;100383.69;5103646;28;19923;-75
2023/05/04 00:07:24;;;;;;;;;;;;;;;5.91;51.53;100383.69;5093406;27;19930;-74
2023/05/04 00:09:50;;;;;;;;;;;;;;;5.86;51.47;100389.84;5089811;27;19923;-73
2023/05/04 00:12:18;;;;;;;;;;;;;;;5.80;51.61;100396.16;5090795;27;19991;-75
2023/05/04 00:14:44;;;;;;;;;;;;;;;5.77;51.81;100394.72;5107229;27;20354;-75
2023/05/04 00:17:09;;;;;;;;;;;;;;;5.76;51.67;100398.50;5106815;27;19923;-74
2023/05/04 00:19:36;;;;;;;;;;;;;;;5.76;51.70;100403.94;5127019;27;19949;-74
2023/05/04 00:22:01;;;;;;;;;;;;;;;5.75;51.86;100390.59;5108720;27;19927;-75
2023/05/04 00:24:28;;;;;;;;;;;;;;;5.65;52.16;100396.56;5091567;27;19923;-78
2023/05/04 00:26:54;;;;;;;;;;;;;;;5.54;53.41;100396.28;5107324;27;20506;-78
2023/05/04 00:29:21;;;;;;;;;;;;;;;5.47;54.01;100402.81;5108684;27;20434;-77
2023/05/04 00:31:47;;;;;;;;;;;;;;;5.48;54.77;100401.75;5088679;27;20025;-77
2023/05/04 00:34:14;;;;;;;;;;;;;;;5.44;55.22;100401.38;5107795;27;20361;-77
2023/05/04 00:36:41;;;;;;;;;;;;;;;5.42;55.30;100403.50;5071549;27;19930;-77
2023/05/04 00:39:07;;;;;;;;;;;;;;;5.39;55.51;100398.53;5107113;27;19931;-78
2023/05/04 00:41:33;;;;;;;;;;;;;;;5.39;55.65;100393.09;5090612;27;19923;-77
2023/05/04 00:43:59;;;;;;;;;;;;;;;5.39;55.69;100403.94;5125934;27;20343;-77
2023/05/04 00:46:26;;;;;;;;;;;;;;;5.32;55.86;100401.31;5127157;27;20407;-77
2023/05/04 00:48:52;;;;;;;;;;;;;;;5.30;56.18;100403.41;5126949;27;19923;-76
2023/05/04 00:51:20;;;;;;;;;;;;;;;5.25;56.38;100404.09;5074164;27;19968;-77
2023/05/04 00:53:46;;;;;;;;;;;;;;;5.28;56.82;100404.69;5107226;27;19930;-77
2023/05/04 00:56:12;;;;;;;;;;;;;;;5.27;56.92;100405.75;5072239;27;19977;-76
2023/05/04 00:58:39;;;;;;;;;;;;;;;5.29;57.09;100407.19;5133300;27;19965;-77
2023/05/04 01:01:05;;;;;;;;;;;;;;;5.33;56.94;100408.38;5096109;27;19927;-77
2023/05/04 01:03:32;;;;;;;;;;;;;;;5.34;57.29;100407.34;5115956;27;19923;-77
2023/05/04 01:06:01;;;;;;;;;;;;;;;5.34;57.34;100415.47;5092740;27;19966;-77
2023/05/04 01:08:30;;;;;;;;;;;;;;;5.31;57.31;100410.50;5089334;27;20395;-77
2023/05/04 01:10:59;;;;;;;;;;;;;;;5.27;57.53;100422.00;5107721;27;19931;-77
2023/05/04 01:13:27;;;;;;;;;;;;;;;5.22;57.70;100411.84;5069303;27;19959;-74
2023/05/04 01:15:53;;;;;;;;;;;;;;;5.20;57.76;100412.06;5106237;27;20018;-73
2023/05/04 01:18:22;;;;;;;;;;;;;;;5.21;57.72;100419.16;5087590;27;19923;-73
2023/05/04 01:20:49;;;;;;;;;;;;;;;5.17;57.62;100417.13;5108178;27;19930;-74
2023/05/04 01:23:17;;;;;;;;;;;;;;;5.14;58.02;100415.66;5126116;27;19931;-73
2023/05/04 01:25:47;;;;;;;;;;;;;;;5.12;58.12;100420.47;5071238;27;20397;-73
2023/05/04 01:28:16;;;;;;;;;;;;;;;5.07;58.03;100423.03;5104983;28;19963;-73
2023/05/04 01:30:43;;;;;;;;;;;;;;;5.07;58.18;100426.59;5091052;27;20025;-73
2023/05/04 01:33:09;;;;;;;;;;;;;;;5.04;58.28;100427.03;5125595;27;19927;-73
2023/05/04 01:35:36;;;;;;;;;;;;;;;5.03;58.39;100417.22;5123243;27;20022;-74
2023/05/04 01:38:02;;;;;;;;;;;;;;;5.01;58.44;100421.25;5105276;28;20029;-74
2023/05/04 01:40:29;;;;;;;;;;;;;;;5.00;58.43;100423.09;5090010;28;19985;-75
2023/05/04 01:42:56;;;;;;;;;;;;;;;5.05;58.11;100431.38;5090127;28;19923;-74
2023/05/04 01:45:22;;;;;;;;;;;;;;;5.06;58.02;100430.34;5127060;28;19923;-74
2023/05/04 01:47:48;;;;;;;;;;;;;;;5.05;57.87;100425.97;5091671;28;19923;-75
2023/05/04 01:50:13;;;;;;;;;;;;;;;5.05;57.64;100434.09;5104522;28;20364;-74
2023/05/04 01:52:40;;;;;;;;;;;;;;;4.99;57.87;100432.28;5087997;28;20029;-74
2023/05/04 01:55:06;;;;;;;;;;;;;;;4.98;57.75;100436.06;5087471;28;20392;-74
2023/05/04 01:57:33;;;;;;;;;;;;;;;4.97;57.72;100442.53;5105813;28;20018;-74
2023/05/04 01:59:59;;;;;;;;;;;;;;;4.94;57.84;100441.09;5105871;28;19930;-74
2023/05/04 02:02:25;;;;;;;;;;;;;;;4.90;57.87;100449.88;5123784;28;19927;-74
2023/05/04 02:04:51;;;;;;;;;;;;;;;4.86;57.86;100446.78;5088709;28;19923;-74
2023/05/04 02:07:17;;;;;;;;;;;;;;;4.87;57.84;100448.44;5107634;28;19927;-74
2023/05/04 02:09:43;;;;;;;;;;;;;;;4.87;57.94;100453.03;5123584;28;19942;-74
2023/05/04 02:12:09;;;;;;;;;;;;;;;4.84;58.15;100451.59;5106785;28;20030;-74
2023/05/04 02:14:37;;;;;;;;;;;;;;;4.83;58.24;100455.34;5105873;28;20184;-74
2023/05/04 02:17:03;;;;;;;;;;;;;;;4.85;58.81;100458.69;5088453;28;19924;-74
2023/05/04 02:19:29;;;;;;;;;;;;;;;4.90;59.25;100463.41;5105299;28;19923;-74
2023/05/04 02:21:54;;;;;;;;;;;;;;;4.90;59.82;100460.72;5105528;28;20438;-73
2023/05/04 02:24:20;;;;;;;;;;;;;;;4.92;60.35;100467.56;5089201;28;20806;-74
2023/05/04 02:26:46;;;;;;;;;;;;;;;4.92;60.66;100459.44;5087614;28;20382;-74
2023/05/04 02:29:13;;;;;;;;;;;;;;;4.92;61.06;100462.16;5125044;27;20203;-76
2023/05/04 02:31:41;;;;;;;;;;;;;;;4.87;61.22;100450.31;5126812;27;19924;-76
2023/05/04 02:34:07;;;;;;;;;;;;;;;5.02;61.23;100464.38;5109676;27;19923;-76
2023/05/04 02:36:40;;;;;;;;;;;;;;;5.12;61.29;100469.28;5126186;27;19950;-76
2023/05/04 02:39:07;;;;;;;;;;;;;;;5.16;61.24;100461.53;5077408;27;19923;-76
2023/05/04 02:41:33;;;;;;;;;;;;;;;5.17;61.32;100465.91;5093335;27;19955;-77
2023/05/04 02:44:00;;;;;;;;;;;;;;;5.23;61.07;100468.56;5110775;27;20019;-77
2023/05/04 02:46:25;;;;;;;;;;;;;;;5.29;61.11;100468.72;5092546;27;19923;-76
2023/05/04 02:48:53;;;;;;;;;;;;;;;5.28;60.88;100469.78;5109286;27;19946;-77
2023/05/04 02:51:19;;;;;;;;;;;;;;;5.35;60.65;100475.97;5091515;27;19924;-76
2023/05/04 02:53:45;;;;;;;;;;;;;;;5.39;60.41;100486.16;5127139;27;19929;-76
2023/05/04 02:56:11;;;;;;;;;;;;;;;5.42;60.02;100481.34;5091688;27;20021;-76
2023/05/04 02:58:37;;;;;;;;;;;;;;;5.45;60.08;100478.97;5126390;27;20037;-76
2023/05/04 03:01:03;;;;;;;;;;;;;;;5.56;59.43;100482.03;5108489;27;19955;-77
2023/05/04 03:03:31;;;;;;;;;;;;;;;5.63;59.02;100496.38;5091456;27;19923;-77
2023/05/04 03:05:58;;;;;;;;;;;;;;;5.71;58.87;100489.81;5127927;27;20308;-76
2023/05/04 03:08:24;;;;;;;;;;;;;;;5.76;58.77;100487.25;5109076;27;19946;-76
2023/05/04 03:10:50;;;;;;;;;;;;;;;5.79;58.78;100493.06;5092328;27;19930;-77
2023/05/04 03:13:16;;;;;;;;;;;;;;;5.78;58.60;100471.56;5130488;27;19923;-73
2023/05/04 03:15:42;;;;;;;;;;;;;;;5.92;58.93;100492.06;5107917;27;19957;-74
2023/05/04 03:18:08;;;;;;;;;;;;;;;5.96;58.95;100493.25;5092872;27;19929;-74
2023/05/04 03:20:35;;;;;;;;;;;;;;;6.02;58.90;100501.59;5108376;27;19954;-74
2023/05/04 03:23:03;;;;;;;;;;;;;;;6.06;58.67;100500.91;5107531;27;19927;-73
2023/05/04 03:25:29;;;;;;;;;;;;;;;6.12;58.89;100499.16;5105749;27;20018;-74
2023/05/04 03:27:56;;;;;;;;;;;;;;;6.20;58.52;100504.28;5126934;27;20354;-73
2023/05/04 03:30:22;;;;;;;;;;;;;;;6.29;57.52;100503.97;5073495;27;20458;-73
2023/05/04 03:32:48;;;;;;;;;;;;;;;6.38;56.55;100505.31;5108845;27;19923;-75
2023/05/04 03:35:14;;;;;;;;;;;;;;;6.46;56.18;100507.69;5090787;27;20385;-74
2023/05/04 03:37:41;;;;;;;;;;;;;;;6.53;54.98;100504.88;5106951;27;20359;-74
2023/05/04 03:40:09;;;;;;;;;;;;;;;6.59;54.12;100506.69;5106167;27;19924;-75
2023/05/04 03:42:36;;;;;;;;;;;;;;;6.66;53.38;100509.31;5090021;27;20026;-74
2023/05/04 03:45:03;;;;;;;;;;;;;;;6.70;52.69;100505.06;5107708;27;20317;-74
2023/05/04 03:47:29;;;;;;;;;;;;;;;6.78;52.37;100509.34;5107520;27;19928;-74
2023/05/04 03:49:55;;;;;;;;;;;;;;;6.83;52.08;100509.47;5093561;27;20037;-74
2023/05/04 03:52:21;;;;;;;;;;;;;;;6.89;51.88;100511.28;5126875;27;20014;-74
2023/05/04 03:54:47;;;;;;;;;;;;;;;6.94;51.74;100519.56;5107114;27;20385;-74
2023/05/04 03:57:14;;;;;;;;;;;;;;;7.02;51.25;100518.38;5106316;27;19930;-73
2023/05/04 03:59:40;;;;;;;;;;;;;;;7.08;51.13;100528.31;5107195;27;19923;-73
2023/05/04 04:02:07;;;;;;;;;;;;;;;7.15;50.70;100527.41;5087927;27;20408;-74
2023/05/04 04:04:32;;;;;;;;;;;;;;;7.19;50.62;100532.16;5089501;27;19923;-75
2023/05/04 04:06:59;;;;;;;;;;;;;;;7.24;50.23;100532.25;5106820;27;19930;-74
2023/05/04 04:09:26;;;;;;;;;;;;;;;7.31;50.20;100534.88;5107808;27;20018;-74
2023/05/04 04:11:52;;;;;;;;;;;;;;;7.36;50.01;100535.00;5125960;27;20422;-74
2023/05/04 04:14:19;;;;;;;;;;;;;;;7.42;49.86;100537.84;5128655;27;19951;-73
2023/05/04 04:16:45;;;;;;;;;;;;;;;7.46;49.51;100539.84;5136944;27;19923;-74
2023/05/04 04:19:11;;;;;;;;;;;;;;;7.52;49.16;100540.78;5108355;27;19923;-74
2023/05/04 04:21:37;;;;;;;;;;;;;;;7.59;49.25;100538.81;5109828;27;20362;-74
2023/05/04 04:24:03;;;;;;;;;;;;;;;7.64;49.29;100536.19;5091964;27;20150;-74
2023/05/04 04:26:29;;;;;;;;;;;;;;;7.72;49.10;100537.72;5128658;27;19923;-74
2023/05/04 04:28:55;;;;;;;;;;;;;;;7.78;48.88;100536.75;5071724;27;19988;-74
2023/05/04 04:31:22;;;;;;;;;;;;;;;7.82;48.64;100541.75;5093290;27;19923;-73
2023/05/04 04:33:48;;;;;;;;;;;;;;;7.87;48.62;100544.56;5106878;27;19923;-74
2023/05/04 04:36:18;;;;;;;;;;;;;;;7.93;48.44;100544.44;5120023;27;19924;-74
2023/05/04 04:38:45;;;;;;;;;;;;;;;7.98;48.43;100537.44;5127151;27;20164;-74
2023/05/04 04:41:11;;;;;;;;;;;;;;;8.03;48.05;100543.84;5106573;27;19954;-73
2023/05/04 04:43:37;;;;;;;;;;;;;;;8.05;48.14;100549.06;5126298;27;19946;-74
2023/05/04 04:46:03;;;;;;;;;;;;;;;8.09;47.91;100550.22;5117321;27;20386;-74
2023/05/04 04:48:30;;;;;;;;;;;;;;;8.13;47.54;100551.41;5105826;27;20002;-74
2023/05/04 04:50:56;;;;;;;;;;;;;;;8.18;47.43;100537.06;5107244;27;19927;-73
2023/05/04 04:53:22;;;;;;;;;;;;;;;8.23;47.31;100540.72;5108152;27;20286;-74
2023/05/04 04:55:49;;;;;;;;;;;;;;;8.28;46.65;100548.19;5126272;27;19923;-73
2023/05/04 04:58:15;;;;;;;;;;;;;;;8.32;46.75;100559.41;5087199;28;20018;-73
2023/05/04 05:00:41;;;;;;;;;;;;;;;8.35;46.48;100551.59;5105114;28;20030;-74
2023/05/04 05:03:07;;;;;;;;;;;;;;;8.43;46.51;100553.09;5091873;27;20439;-73
2023/05/04 05:05:34;;;;;;;;;;;;;;;8.47;46.16;100559.72;5102046;27;19946;-73
2023/05/04 05:08:00;;;;;;;;;;;;;;;8.47;45.77;100554.25;5123035;27;19923;-73
2023/05/04 05:10:26;;;;;;;;;;;;;;;8.50;45.83;100553.00;5122960;27;20333;-74
2023/05/04 05:12:51;;;;;;;;;;;;;;;8.57;45.91;100553.66;5100483;27;20052;-72
2023/05/04 05:15:17;;;;;;;;;;;;;;;8.63;45.68;100555.44;5107342;27;20349;-74
2023/05/04 05:17:43;;;;;;;;;;;;;;;8.70;45.70;100551.72;5126013;27;20318;-73
2023/05/04 05:20:10;;;;;;;;;;;;;;;8.76;45.66;100561.66;5126194;27;19982;-73
2023/05/04 05:22:38;;;;;;;;;;;;;;;8.78;45.26;100565.78;5125377;27;19980;-74
2023/05/04 05:25:04;;;;;;;;;;;;;;;8.84;45.14;100569.44;5073973;27;19931;-75
2023/05/04 05:27:31;;;;;;;;;;;;;;;8.88;45.21;100562.41;5109559;27;19927;-74
2023/05/04 05:29:58;;;;;;;;;;;;;;;8.92;45.17;100565.50;5126700;27;19930;-74
2023/05/04 05:32:27;;;;;;;;;;;;;;;8.96;45.06;100560.38;5113705;27;19924;-73
2023/05/04 05:34:53;;;;;;;;;;;;;;;8.98;44.90;100564.53;5124442;27;20305;-74
2023/05/04 05:37:19;;;;;;;;;;;;;;;9.04;44.73;100560.81;5126306;27;20409;-74
2023/05/04 05:39:46;;;;;;;;;;;;;;;9.07;44.68;100559.50;5125084;27;19923;-73
2023/05/04 05:42:12;;;;;;;;;;;;;;;9.08;43.97;100559.22;5105664;28;19955;-74
2023/05/04 05:44:38;;;;;;;;;;;;;;;9.13;43.62;100563.13;5122339;27;19959;-74
2023/05/04 05:47:04;;;;;;;;;;;;;;;9.18;43.51;100563.22;5105932;28;19927;-74
2023/05/04 05:49:30;;;;;;;;;;;;;;;9.24;42.76;100564.94;5122758;28;19923;-74
2023/05/04 05:51:57;;;;;;;;;;;;;;;9.20;42.71;100567.34;5124376;28;19927;-74
2023/05/04 05:54:23;;;;;;;;;;;;;;;9.17;42.66;100562.38;5124242;28;19930;-74
2023/05/04 05:56:50;;;;;;;;;;;;;;;9.14;42.75;100562.88;5125132;27;20034;-74
2023/05/04 05:59:16;;;;;;;;;;;;;;;9.18;42.59;100568.69;5084495;28;19927;-74
2023/05/04 06:01:42;;;;;;;;;;;;;;;9.30;42.47;100572.16;5125115;28;19924;-74
2023/05/04 06:04:08;;;;;;;;;;;;;;;9.45;42.18;100566.13;5110109;27;19955;-75
2023/05/04 06:06:34;;;;;;;;;;;;;;;9.63;41.76;100567.78;5096936;27;19930;-74
2023/05/04 06:09:01;;;;;;;;;;;;;;;9.76;41.13;100563.84;5129417;27;19924;-74
2023/05/04 06:11:27;;;;;;;;;;;;;;;10.04;40.42;100566.69;5109515;27;20390;-74
2023/05/04 06:13:55;;;;;;;;;;;;;;;10.18;40.05;100554.31;5107656;27;19923;-74
2023/05/04 06:16:20;;;;;;;;;;;;;;;10.27;39.67;100557.44;5128170;27;19968;-76
2023/05/04 06:18:46;;;;;;;;;;;;;;;10.37;39.82;100559.44;5102870;27;19962;-77
2023/05/04 06:21:12;;;;;;;;;;;;;;;10.43;39.16;100563.09;5129963;27;20397;-74
2023/05/04 06:23:38;;;;;;;;;;;;;;;10.45;39.03;100550.84;5112174;27;19923;-74
2023/05/04 06:26:07;;;;;;;;;;;;;;;10.54;39.18;100555.88;5110148;27;19934;-74
2023/05/04 06:28:33;;;;;;;;;;;;;;;10.59;38.22;100551.25;5131673;27;19931;-74
2023/05/04 06:31:01;;;;;;;;;;;;;;;10.66;37.34;100547.53;5129040;27;19929;-74
2023/05/04 06:33:27;;;;;;;;;;;;;;;10.80;37.40;100548.75;5128504;27;19930;-74
2023/05/04 06:35:53;;;;;;;;;;;;;;;11.01;37.09;100552.53;5110672;27;20445;-74
2023/05/04 06:38:19;;;;;;;;;;;;;;;11.28;35.82;100548.91;5131370;27;20018;-74
2023/05/04 06:40:45;;;;;;;;;;;;;;;11.28;35.40;100548.91;5131151;27;20012;-74
2023/05/04 06:43:14;;;;;;;;;;;;;;;11.13;35.10;100554.25;5130442;27;20025;-74
2023/05/04 06:45:39;;;;;;;;;;;;;;;11.12;34.99;100556.19;5130535;27;19923;-74
2023/05/04 06:48:07;;;;;;;;;;;;;;;11.04;34.96;100545.69;5130435;27;20591;-74
2023/05/04 06:50:34;;;;;;;;;;;;;;;11.13;35.28;100546.03;5129264;27;19923;-74
2023/05/04 06:53:03;;;;;;;;;;;;;;;11.23;34.88;100548.88;5130648;27;20053;-74
2023/05/04 06:55:30;;;;;;;;;;;;;;;11.29;34.75;100549.75;5130466;27;19922;-74
2023/05/04 06:57:56;;;;;;;;;;;;;;;11.29;34.49;100544.28;5129238;27;20437;-74
2023/05/04 07:00:22;;;;;;;;;;;;;;;11.41;34.25;100544.09;5128987;27;19923;-74
2023/05/04 07:02:52;;;;;;;;;;;;;;;11.49;34.33;100543.63;5130073;27;19929;-76
2023/05/04 07:05:22;;;;;;;;;;;;;;;11.63;34.27;100543.97;5110364;27;19923;-77
2023/05/04 07:07:49;;;;;;;;;;;;;;;11.80;33.80;100542.97;5124206;27;19923;-77
2023/05/04 07:10:15;;;;;;;;;;;;;;;11.94;33.71;100544.16;5105778;27;19923;-77
2023/05/04 07:12:42;;;;;;;;;;;;;;;12.08;33.58;100543.72;5111438;27;20282;-77
2023/05/04 07:15:09;;;;;;;;;;;;;;;12.26;33.46;100537.75;5109574;27;19946;-76
2023/05/04 07:17:35;;;;;;;;;;;;;;;12.36;32.95;100542.44;5129936;27;19946;-76
2023/05/04 07:20:04;;;;;;;;;;;;;;;12.29;33.07;100541.88;5111417;27;20360;-76
2023/05/04 07:22:32;;;;;;;;;;;;;;;12.18;33.16;100539.09;5115445;27;19989;-76
2023/05/04 07:24:58;;;;;;;;;;;;;;;12.26;32.69;100535.00;5109791;27;19927;-76
2023/05/04 07:27:24;;;;;;;;;;;;;;;12.16;32.56;100537.69;5128065;27;19929;-77
2023/05/04 07:29:50;;;;;;;;;;;;;;;12.16;32.74;100537.69;5128104;27;20353;-76
2023/05/04 07:32:15;;;;;;;;;;;;;;;12.33;32.49;100523.81;5126130;27;19957;-77
2023/05/04 07:34:42;;;;;;;;;;;;;;;12.57;32.23;100523.34;5128955;27;20582;-76
2023/05/04 07:37:09;;;;;;;;;;;;;;;12.65;32.11;100525.53;5093360;28;19923;-76
2023/05/04 07:39:37;;;;;;;;;;;;;;;12.61;31.78;100527.19;5110082;27;19923;-76
2023/05/04 07:42:03;;;;;;;;;;;;;;;12.65;31.85;100519.25;5102729;28;20552;-76
2023/05/04 07:44:30;;;;;;;;;;;;;;;12.78;31.43;100521.44;5117547;27;19965;-77
2023/05/04 07:46:56;;;;;;;;;;;;;;;12.83;31.34;100513.22;5102181;27;20008;-76
2023/05/04 07:49:22;;;;;;;;;;;;;;;12.89;31.22;100503.88;5086148;27;19955;-77
2023/05/04 07:51:48;;;;;;;;;;;;;;;13.04;31.22;100510.50;5101801;27;19923;-76
2023/05/04 07:54:14;;;;;;;;;;;;;;;13.27;30.68;100514.59;5068197;27;19996;-76
2023/05/04 07:56:42;;;;;;;;;;;;;;;13.33;29.64;100513.50;5090314;27;20010;-74
2023/05/04 07:59:07;;;;;;;;;;;;;;;13.29;29.95;100506.09;5122074;27;19923;-74
2023/05/04 08:01:33;;;;;;;;;;;;;;;13.57;29.81;100512.94;5099285;27;19924;-75
2023/05/04 08:03:59;;;;;;;;;;;;;;;13.93;29.03;100517.53;5094337;27;19924;-73
2023/05/04 08:06:25;;;;;;;;;;;;;;;14.40;28.31;100518.16;5121335;27;19976;-76
2023/05/04 08:08:51;;;;;;;;;;;;;;;15.00;27.59;100508.19;5112802;27;19930;-76
2023/05/04 08:11:17;;;;;;;;;;;;;;;15.71;26.95;100508.63;5107245;27;19927;-77
2023/05/04 08:13:45;;;;;;;;;;;;;;;15.99;26.18;100503.38;5094453;27;19923;-76
2023/05/04 08:16:11;;;;;;;;;;;;;;;16.03;25.55;100506.38;5120985;27;19929;-76
2023/05/04 08:18:37;;;;;;;;;;;;;;;16.37;25.50;100501.78;5091515;27;19923;-76
2023/05/04 08:21:03;;;;;;;;;;;;;;;16.34;24.10;100511.50;5120257;27;19946;-76
2023/05/04 08:23:30;;;;;;;;;;;;;;;16.35;23.33;100502.09;5090271;27;19923;-77
2023/05/04 08:25:56;;;;;;;;;;;;;;;16.87;23.12;100499.41;5124264;27;19923;-76
2023/05/04 08:28:22;;;;;;;;;;;;;;;17.64;22.63;100495.66;5108774;27;20026;-76
2023/05/04 08:30:49;;;;;;;;;;;;;;;18.12;22.10;100486.97;5088453;28;20329;-76
2023/05/04 08:33:15;;;;;;;;;;;;;;;18.31;21.58;100493.50;5119902;27;20379;-76
2023/05/04 08:35:41;;;;;;;;;;;;;;;18.28;21.61;100481.94;5065338;28;19924;-76
2023/05/04 08:38:07;;;;;;;;;;;;;;;18.68;21.05;100484.06;5112705;27;19934;-76
2023/05/04 08:40:33;;;;;;;;;;;;;;;19.46;20.33;100490.50;5117593;27;19927;-76
2023/05/04 08:42:58;;;;;;;;;;;;;;;20.05;19.56;100494.16;5117020;27;19959;-77
2023/05/04 08:45:24;;;;;;;;;;;;;;;20.14;19.71;100480.31;5082620;27;20508;-76
2023/05/04 08:47:52;;;;;;;;;;;;;;;20.10;19.97;100482.91;5126746;27;19976;-77
2023/05/04 08:50:18;;;;;;;;;;;;;;;20.99;19.34;100486.56;5074819;27;19963;-77
2023/05/04 08:52:47;;;;;;;;;;;;;;;21.22;19.27;100481.63;5102808;27;19966;-76
2023/05/04 08:55:15;;;;;;;;;;;;;;;21.65;19.01;100479.88;5106612;27;20402;-76
2023/05/04 08:57:43;;;;;;;;;;;;;;;22.09;18.67;100472.16;5103954;27;19924;-76
2023/05/04 09:00:10;;;;;;;;;;;;;;;21.75;18.49;100473.13;5094863;28;19977;-77
2023/05/04 09:02:36;;;;;;;;;;;;;;;21.47;18.57;100474.38;5098610;28;20031;-77
2023/05/04 09:05:06;;;;;;;;;;;;;;;21.62;18.57;100469.38;5106866;28;20385;-78
2023/05/04 09:07:32;;;;;;;;;;;;;;;21.30;18.95;100471.63;5090403;27;19927;-76
2023/05/04 09:09:58;;;;;;;;;;;;;;;21.38;18.79;100465.22;5119491;27;19930;-76
2023/05/04 09:12:25;;;;;;;;;;;;;;;22.31;18.44;100472.97;5110732;27;19923;-76
2023/05/04 09:14:51;;;;;;;;;;;;;;;22.89;17.54;100468.75;5106726;28;19955;-76
2023/05/04 09:17:24;;;;;;;;;;;;;;;22.16;17.68;100460.44;5104514;28;19963;-76
2023/05/04 09:19:56;;;;;;;;;;;;;;;22.18;17.70;100460.13;5110185;27;21018;-76
2023/05/04 09:22:23;;;;;;;;;;;;;;;22.09;18.00;100457.41;5089390;27;19923;-76
2023/05/04 09:24:49;;;;;;;;;;;;;;;22.27;17.60;100460.06;5071882;27;19976;-77
2023/05/04 09:27:16;;;;;;;;;;;;;;;22.77;17.63;100456.41;5127301;27;19931;-76
2023/05/04 09:29:42;;;;;;;;;;;;;;;23.00;17.09;100458.81;5126346;27;19923;-76
2023/05/04 09:32:13;;;;;;;;;;;;;;;22.83;17.49;100459.00;5125492;27;19930;-76
2023/05/04 09:34:46;;;;;;;;;;;;;;;22.83;17.61;100459.78;5108639;27;20055;-76
2023/05/04 09:37:12;;;;;;;;;;;;;;;23.06;17.33;100457.44;5107876;27;19931;-76
2023/05/04 09:39:48;;;;;;;;;;;;;;;23.11;17.28;100452.81;5115469;27;19923;-76
2023/05/04 09:42:15;;;;;;;;;;;;;;;23.30;16.93;100450.31;5113336;27;19930;-77
2023/05/04 09:44:41;;;;;;;;;;;;;;;23.62;16.64;100463.72;5083632;28;19976;-77
2023/05/04 09:47:07;;;;;;;;;;;;;;;24.03;16.13;100452.69;5119380;28;19927;-76
2023/05/04 09:49:33;;;;;;;;;;;;;;;24.56;15.96;100452.66;5082960;28;19947;-77
2023/05/04 09:52:02;;;;;;;;;;;;;;;24.85;15.71;100438.75;5110849;28;19981;-77
2023/05/04 09:54:31;;;;;;;;;;;;;;;24.94;15.48;100442.19;5110030;28;20356;-77
2023/05/04 09:57:03;;;;;;;;;;;;;;;25.40;14.98;100446.56;5113460;28;19928;-76
2023/05/04 09:59:30;;;;;;;;;;;;;;;24.38;15.45;100442.97;5112705;28;19923;-76
2023/05/04 10:01:57;;;;;;;;;;;;;;;23.50;16.10;100433.84;5114669;28;20067;-76
2023/05/04 10:04:24;;;;;;;;;;;;;;;23.69;16.20;100435.22;5111953;28;20302;-76
2023/05/04 10:06:50;;;;;;;;;;;;;;;24.58;15.64;100430.78;5118224;28;20010;-76
2023/05/04 10:09:17;;;;;;;;;;;;;;;24.39;15.88;100431.44;5111210;28;20029;-76
2023/05/04 10:11:43;;;;;;;;;;;;;;;23.39;16.67;100429.88;5115488;28;20026;-76
2023/05/04 10:14:12;;;;;;;;;;;;;;;23.88;16.53;100420.69;5092005;28;19988;-77
2023/05/04 10:16:42;;;;;;;;;;;;;;;25.08;15.27;100426.97;5127598;28;19924;-76
2023/05/04 10:19:18;;;;;;;;;;;;;;;26.12;14.65;100423.09;5124149;28;19956;-77
2023/05/04 10:21:52;;;;;;;;;;;;;;;26.21;14.25;100414.53;5114917;28;19923;-76
2023/05/04 10:24:36;;;;;;;;;;;;;;;24.78;14.70;100423.38;5090552;28;19930;-76
2023/05/04 10:27:04;;;;;;;;;;;;;;;23.85;15.19;100421.41;5093287;28;20455;-76
2023/05/04 10:29:32;;;;;;;;;;;;;;;22.22;16.50;100422.91;5099604;28;20390;-76
2023/05/04 10:31:58;;;;;;;;;;;;;;;22.03;16.77;100412.22;5113092;28;19953;-76
2023/05/04 10:34:25;;;;;;;;;;;;;;;23.11;15.85;100409.00;5085301;28;19923;-77
2023/05/04 10:36:50;;;;;;;;;;;;;;;24.57;14.80;100409.59;5086033;28;19930;-76
2023/05/04 10:39:18;;;;;;;;;;;;;;;26.07;13.84;100400.16;5108841;28;20030;-76
2023/05/04 10:41:54;;;;;;;;;;;;;;;27.23;13.17;100403.28;5076761;28;19930;-76
2023/05/04 10:44:20;;;;;;;;;;;;;;;27.49;12.94;100409.31;5096555;28;19958;-76
2023/05/04 10:46:56;;;;;;;;;;;;;;;26.12;13.52;100397.91;5092860;28;19932;-77
2023/05/04 10:49:22;;;;;;;;;;;;;;;23.09;15.58;100402.94;5080300;27;19930;-76
2023/05/04 10:51:47;;;;;;;;;;;;;;;22.12;16.48;100398.25;5099815;28;19924;-76
2023/05/04 10:54:17;;;;;;;;;;;;;;;23.19;15.71;100401.69;5101001;27;20317;-76
2023/05/04 10:56:43;;;;;;;;;;;;;;;24.65;15.02;100402.22;5120429;27;20282;-77
2023/05/04 10:59:09;;;;;;;;;;;;;;;25.86;14.07;100390.91;5100622;27;19931;-77
2023/05/04 11:01:40;;;;;;;;;;;;;;;26.67;13.46;100397.03;5118034;27;19930;-77
2023/05/04 11:04:16;;;;;;;;;;;;;;;27.07;13.47;100386.56;5117909;27;19923;-77
2023/05/04 11:06:43;;;;;;;;;;;;;;;27.00;13.23;100392.06;5117033;27;19923;-77
2023/05/04 11:09:11;;;;;;;;;;;;;;;27.68;12.68;100385.97;5097084;28;19931;-77
2023/05/04 11:11:37;;;;;;;;;;;;;;;28.03;12.92;100388.50;5118278;27;20516;-77
2023/05/04 11:14:03;;;;;;;;;;;;;;;28.08;12.32;100387.31;5071074;27;19976;-77
2023/05/04 11:16:29;;;;;;;;;;;;;;;27.71;12.37;100383.22;5117521;27;19946;-76
2023/05/04 11:19:05;;;;;;;;;;;;;;;27.57;12.64;100383.81;5120330;27;20461;-77
2023/05/04 11:21:32;;;;;;;;;;;;;;;27.18;12.94;100381.16;5115481;27;19993;-76
2023/05/04 11:23:59;;;;;;;;;;;;;;;25.81;13.89;100368.81;5113278;27;19984;-74
2023/05/04 11:26:25;;;;;;;;;;;;;;;25.60;13.80;100369.94;5096892;27;20018;-74
2023/05/04 11:28:51;;;;;;;;;;;;;;;23.51;15.16;100376.88;5116265;27;20436;-73
2023/05/04 11:31:17;;;;;;;;;;;;;;;22.79;15.82;100372.44;5094918;27;19927;-75
2023/05/04 11:33:45;;;;;;;;;;;;;;;24.29;15.04;100367.66;5119309;27;19974;-74
2023/05/04 11:36:10;;;;;;;;;;;;;;;26.10;14.09;100363.00;5120900;27;19968;-78
2023/05/04 11:38:38;;;;;;;;;;;;;;;26.92;12.61;100362.25;5113623;27;19931;-77
2023/05/04 11:41:04;;;;;;;;;;;;;;;27.17;12.69;100355.06;5117102;27;19924;-77
2023/05/04 11:43:31;;;;;;;;;;;;;;;27.91;12.23;100346.56;5118012;27;19951;-77
2023/05/04 11:45:59;;;;;;;;;;;;;;;28.70;11.69;100345.91;5070769;27;19923;-77
2023/05/04 11:48:25;;;;;;;;;;;;;;;29.42;11.46;100342.97;5099331;27;19932;-77
2023/05/04 11:50:52;;;;;;;;;;;;;;;30.03;10.97;100338.88;5095699;27;19930;-77
2023/05/04 11:53:21;;;;;;;;;;;;;;;29.77;11.44;100350.00;5096005;28;19973;-78
2023/05/04 11:55:48;;;;;;;;;;;;;;;28.87;11.60;100364.19;5104178;27;19927;-78
2023/05/04 11:58:14;;;;;;;;;;;;;;;27.70;11.98;100347.88;5086922;27;20328;-77
2023/05/04 12:00:41;;;;;;;;;;;;;;;26.50;12.78;100347.03;5119461;27;19966;-76
2023/05/04 12:03:08;;;;;;;;;;;;;;;25.98;12.88;100338.75;5120284;27;19927;-77
2023/05/04 12:05:34;;;;;;;;;;;;;;;25.84;13.14;100340.06;5105157;27;19922;-77
2023/05/04 12:08:02;;;;;;;;;;;;;;;25.87;12.92;100342.13;5097192;28;20028;-77
2023/05/04 12:10:28;;;;;;;;;;;;;;;25.39;13.19;100336.63;5125506;27;19924;-77
2023/05/04 12:12:55;;;;;;;;;;;;;;;23.60;14.45;100332.91;5127119;27;19934;-77
2023/05/04 12:15:29;;;;;;;;;;;;;;;21.89;15.98;100342.91;5075640;27;19930;-77
2023/05/04 12:17:55;;;;;;;;;;;;;;;20.44;17.19;100338.88;5109322;27;20405;-77
2023/05/04 12:20:22;;;;;;;;;;;;;;;19.47;17.85;100334.06;5127097;27;19942;-77
2023/05/04 12:22:48;;;;;;;;;;;;;;;18.90;18.44;100341.16;5126830;27;20222;-76
2023/05/04 12:25:16;;;;;;;;;;;;;;;18.82;18.51;100330.84;5125503;27;19930;-76
2023/05/04 12:27:42;;;;;;;;;;;;;;;20.90;16.77;100314.28;5106827;27;20018;-77
2023/05/04 12:30:10;;;;;;;;;;;;;;;22.63;15.27;100316.53;5119436;27;20021;-77
2023/05/04 12:32:36;;;;;;;;;;;;;;;22.09;16.03;100319.03;5093499;27;19967;-77
2023/05/04 12:35:03;;;;;;;;;;;;;;;20.87;16.38;100314.97;5114828;27;20012;-76
2023/05/04 12:37:29;;;;;;;;;;;;;;;20.01;17.23;100310.03;5087108;27;19924;-76